Time;durP1;ratioP1;P1;durP2;ratioP2;P2;SDS_P1;SDS_P2;PMS_P1;PMS_P2;Temp;Humidity;BMP_temperature;BMP_pressure;BME280_temperature;BME280_humidity;BME280_pressure;Samples;Min_cycle;Max_cycle;Signal;HPM_P1;HPM_P2
2023/02/14 00:01:42;;;;;;;45.83;28.77;;;7.70;99.90;;;;;;5013935;28;20030;-87
2023/02/14 00:04:08;;;;;;;45.03;29.10;;;7.70;99.90;;;;;;5014439;28;20029;-86
2023/02/14 00:06:37;;;;;;;45.92;29.25;;;7.40;99.90;;;;;;5013504;28;20351;-87
2023/02/14 00:09:04;;;;;;;45.22;27.90;;;7.40;99.90;;;;;;5014401;28;20346;-88
2023/02/14 00:11:30;;;;;;;45.45;29.05;;;7.50;99.90;;;;;;5014207;28;20113;-87
2023/02/14 00:16:40;;;;;;;45.08;27.77;;;7.40;99.90;;;;;;5013982;28;20117;-87
2023/02/14 00:19:07;;;;;;;43.28;28.38;;;7.40;99.90;;;;;;5013846;28;20101;-86
2023/02/14 00:21:35;;;;;;;52.00;27.88;;;7.50;99.90;;;;;;5013237;28;20494;-88
2023/02/14 00:24:06;;;;;;;45.88;27.90;;;8.00;99.90;;;;;;5014044;28;20037;-88
2023/02/14 00:26:32;;;;;;;45.58;27.60;;;7.50;99.90;;;;;;5013247;28;20029;-89
2023/02/14 00:29:00;;;;;;;42.83;27.50;;;7.90;99.90;;;;;;5014178;28;20018;-88
2023/02/14 00:31:26;;;;;;;42.92;27.77;;;8.00;99.90;;;;;;5013611;28;20038;-89
2023/02/14 00:33:52;;;;;;;40.67;27.17;;;7.50;99.90;;;;;;5013167;28;20386;-87
2023/02/14 00:36:19;;;;;;;42.33;26.90;;;8.60;99.90;;;;;;5013953;28;20065;-88
2023/02/14 00:38:44;;;;;;;41.45;26.80;;;7.80;99.90;;;;;;5013457;28;20399;-88
2023/02/14 00:41:17;;;;;;;40.28;26.20;;;8.20;99.90;;;;;;5012911;28;20093;-88
2023/02/14 00:43:44;;;;;;;42.45;26.20;;;7.40;99.90;;;;;;5013284;28;20048;-88
2023/02/14 00:46:10;;;;;;;39.58;27.08;;;8.10;99.90;;;;;;5013730;28;20029;-88
2023/02/14 00:48:36;;;;;;;38.35;26.30;;;7.30;99.90;;;;;;5013168;28;20026;-87
2023/02/14 00:51:01;;;;;;;41.45;26.95;;;8.20;99.90;;;;;;5013668;28;20030;-89
2023/02/14 00:53:27;;;;;;;42.58;26.80;;;7.30;99.90;;;;;;5013817;28;20026;-88
2023/02/14 00:55:52;;;;;;;44.13;26.02;;;8.00;99.90;;;;;;5013137;28;20036;-88
2023/02/14 00:58:18;;;;;;;41.65;25.73;;;8.20;99.90;;;;;;5013315;28;20113;-88
2023/02/14 01:00:43;;;;;;;35.78;23.98;;;8.00;99.90;;;;;;5013139;28;20033;-88
2023/02/14 01:03:09;;;;;;;42.80;26.65;;;7.20;99.90;;;;;;5012834;28;20024;-88
2023/02/14 01:05:34;;;;;;;38.53;24.95;;;7.10;99.90;;;;;;5013211;28;20026;-88
2023/02/14 01:08:00;;;;;;;41.75;25.88;;;7.10;99.90;;;;;;5013368;28;20033;-88
2023/02/14 01:10:25;;;;;;;41.33;25.75;;;7.70;99.90;;;;;;5012613;28;20104;-87
2023/02/14 01:12:51;;;;;;;40.55;26.88;;;7.40;99.90;;;;;;5013612;28;20045;-89
2023/02/14 01:15:17;;;;;;;43.13;25.00;;;7.00;99.90;;;;;;5015331;28;20022;-89
2023/02/14 01:17:42;;;;;;;43.63;27.45;;;7.40;99.90;;;;;;5012419;28;20026;-90
2023/02/14 01:20:08;;;;;;;42.15;25.88;;;7.80;99.90;;;;;;5013162;28;20030;-88
2023/02/14 01:22:36;;;;;;;49.53;27.42;;;7.00;99.90;;;;;;5012795;28;20029;-88
2023/02/14 01:25:01;;;;;;;39.45;26.15;;;7.10;99.90;;;;;;5013306;28;20080;-87
2023/02/14 01:27:27;;;;;;;43.63;27.67;;;7.00;99.90;;;;;;5013325;28;20022;-87
2023/02/14 01:29:53;;;;;;;42.60;26.40;;;7.50;99.90;;;;;;5012126;28;20061;-87
2023/02/14 01:32:18;;;;;;;44.65;25.73;;;7.30;99.90;;;;;;5013077;28;20026;-87
2023/02/14 01:34:44;;;;;;;40.03;26.55;;;7.80;99.90;;;;;;5012598;28;20424;-87
2023/02/14 01:37:09;;;;;;;40.65;25.90;;;7.10;99.90;;;;;;5012445;28;20448;-87
2023/02/14 01:39:35;;;;;;;39.90;25.50;;;6.90;99.90;;;;;;5012921;28;20022;-88
2023/02/14 01:42:00;;;;;;;42.33;25.55;;;6.90;99.90;;;;;;5012921;28;20054;-88
2023/02/14 01:44:35;;;;;;;37.75;24.80;;;6.90;99.90;;;;;;5016629;28;20034;-88
2023/02/14 01:47:04;;;;;;;40.50;26.00;;;7.00;99.90;;;;;;5016735;28;20064;-88
2023/02/14 01:49:37;;;;;;;38.70;25.02;;;7.90;99.90;;;;;;5016531;28;20488;-88
2023/02/14 01:52:13;;;;;;;40.33;25.05;;;6.80;99.90;;;;;;5016194;28;20494;-87
2023/02/14 01:54:46;;;;;;;43.55;24.83;;;6.80;99.90;;;;;;5016437;28;20030;-87
2023/02/14 01:57:16;;;;;;;38.17;23.83;;;6.70;99.90;;;;;;5016822;28;20100;-88
2023/02/14 01:59:48;;;;;;;41.07;25.17;;;7.80;99.90;;;;;;5015930;28;20049;-89
2023/02/14 02:02:14;;;;;;;43.33;23.63;;;6.60;99.90;;;;;;5016652;28;20030;-87
2023/02/14 02:04:45;;;;;;;41.53;24.30;;;6.60;99.90;;;;;;5016276;28;20433;-88
2023/02/14 02:07:20;;;;;;;38.50;23.35;;;7.10;99.90;;;;;;5015787;28;20397;-88
2023/02/14 02:09:53;;;;;;;31.58;22.13;;;6.90;99.90;;;;;;5015877;28;20053;-88
2023/02/14 02:12:19;;;;;;;33.15;22.40;;;6.50;99.90;;;;;;5015894;28;20382;-88
2023/02/14 02:14:45;;;;;;;42.42;23.75;;;7.30;99.90;;;;;;5016947;28;20477;-89
2023/02/14 02:17:42;;;;;;;42.80;23.50;;;6.40;99.90;;;;;;5016476;28;20033;-88
2023/02/14 02:20:44;;;;;;;38.03;24.00;;;6.50;99.90;;;;;;5016468;28;20018;-88
2023/02/14 02:23:47;;;;;;;40.28;24.52;;;6.50;99.90;;;;;;5016616;28;20030;-88
2023/02/14 02:26:34;;;;;;;40.85;23.15;;;6.60;99.90;;;;;;5015842;28;20120;-88
2023/02/14 02:29:32;;;;;;;43.00;23.92;;;6.60;99.90;;;;;;5016260;28;20026;-88
2023/02/14 02:32:28;;;;;;;37.78;23.70;;;6.60;99.90;;;;;;5015934;28;20053;-88
2023/02/14 02:35:11;;;;;;;37.53;24.05;;;6.60;99.90;;;;;;5015235;28;20045;-89
2023/02/14 02:37:46;;;;;;;35.67;23.50;;;6.60;99.90;;;;;;5015643;28;20037;-87
2023/02/14 02:40:27;;;;;;;41.00;23.42;;;6.70;99.90;;;;;;5014954;28;20030;-88
2023/02/14 02:43:10;;;;;;;42.28;24.42;;;6.70;99.90;;;;;;5015321;28;20890;-88
2023/02/14 02:49:10;;;;;;;38.78;23.65;;;6.60;99.90;;;;;;5015604;28;20508;-88
2023/02/14 02:54:47;;;;;;;43.88;23.20;;;6.70;99.90;;;;;;5014527;28;20045;-88
2023/02/14 02:57:30;;;;;;;41.03;23.67;;;6.70;99.90;;;;;;5015675;28;20077;-88
2023/02/14 02:59:57;;;;;;;38.85;22.13;;;6.70;99.90;;;;;;5014823;28;20552;-88
2023/02/14 03:04:46;;;;;;;36.22;21.58;;;7.40;99.90;;;;;;5015331;28;20057;-87
2023/02/14 03:05:19;;;;;;;35.95;22.30;;;6.80;99.90;;;;;;5015235;28;20029;-88
2023/02/14 03:07:48;;;;;;;37.25;22.65;;;8.00;99.90;;;;;;5014966;28;20026;-88
2023/02/14 03:10:19;;;;;;;33.70;20.95;;;6.90;99.90;;;;;;5014705;28;20038;-89
2023/02/14 03:13:09;;;;;;;39.13;21.58;;;6.80;99.90;;;;;;5015379;28;20496;-88
2023/02/14 03:16:09;;;;;;;30.27;21.20;;;6.70;99.90;;;;;;5014770;28;20103;-87
2023/02/14 03:19:16;;;;;;;34.97;21.13;;;6.70;99.90;;;;;;5014790;28;20033;-89
2023/02/14 03:22:00;;;;;;;34.10;20.95;;;6.70;99.90;;;;;;4994819;28;20469;-87
2023/02/14 03:24:50;;;;;;;34.20;21.50;;;6.70;99.90;;;;;;5014807;28;20026;-88
2023/02/14 03:27:46;;;;;;;32.67;19.25;;;7.20;99.90;;;;;;5014644;28;20030;-89
2023/02/14 03:30:17;;;;;;;35.38;19.67;;;6.70;99.90;;;;;;5013372;28;20034;-88
2023/02/14 03:33:04;;;;;;;34.75;20.23;;;6.70;99.90;;;;;;5014695;28;20109;-87
2023/02/14 03:36:02;;;;;;;32.78;19.95;;;6.70;99.90;;;;;;5014995;28;20030;-87
2023/02/14 03:38:31;;;;;;;31.90;21.05;;;6.60;99.90;;;;;;5008764;28;20503;-89
2023/02/14 03:41:02;;;;;;;32.72;20.35;;;6.70;99.90;;;;;;5013863;28;20521;-86
2023/02/14 03:43:35;;;;;;;29.30;19.25;;;7.50;99.90;;;;;;5014098;28;20036;-88
2023/02/14 03:46:15;;;;;;;30.92;19.13;;;6.50;99.90;;;;;;5014539;28;20036;-88
2023/02/14 03:48:43;;;;;;;30.20;19.83;;;7.30;99.90;;;;;;5014001;28;20362;-87
2023/02/14 03:51:11;;;;;;;34.08;21.65;;;6.50;99.90;;;;;;5013734;28;20046;-87
2023/02/14 03:53:41;;;;;;;32.58;20.88;;;8.00;99.90;;;;;;5014265;28;20045;-88
2023/02/14 03:56:21;;;;;;;33.45;20.83;;;6.50;99.90;;;;;;5014236;28;20046;-87
2023/02/14 03:58:51;;;;;;;33.13;20.10;;;6.50;99.90;;;;;;5013425;28;20100;-87
2023/02/14 04:01:29;;;;;;;35.08;21.73;;;6.50;99.90;;;;;;5014251;28;20018;-89
2023/02/14 04:03:56;;;;;;;32.90;20.77;;;6.50;99.90;;;;;;5014071;28;20127;-88
2023/02/14 04:06:24;;;;;;;35.70;21.83;;;7.20;99.90;;;;;;5013904;28;20026;-87
2023/02/14 04:08:50;;;;;;;38.58;21.65;;;6.30;99.90;;;;;;5014596;28;20117;-87
2023/02/14 04:11:16;;;;;;;33.63;20.42;;;6.40;99.90;;;;;;5014054;28;20120;-87
2023/02/14 04:13:41;;;;;;;36.63;22.58;;;6.70;99.90;;;;;;5013315;28;20024;-88
2023/02/14 04:16:07;;;;;;;31.88;21.13;;;7.80;99.90;;;;;;5014174;28;20378;-88
2023/02/14 04:21:17;;;;;;;34.40;20.88;;;7.30;99.90;;;;;;5014180;28;20080;-87
2023/02/14 04:23:43;;;;;;;35.88;20.92;;;6.40;99.90;;;;;;5013755;28;20053;-87
2023/02/14 04:26:08;;;;;;;29.88;20.10;;;7.30;99.90;;;;;;5013699;28;20366;-87
2023/02/14 04:28:34;;;;;;;34.80;19.63;;;6.40;99.90;;;;;;5013339;28;20460;-89
2023/02/14 04:31:05;;;;;;;28.77;19.23;;;7.50;99.90;;;;;;5014228;28;20049;-88
2023/02/14 04:33:31;;;;;;;31.20;19.55;;;6.40;99.90;;;;;;5013794;28;20034;-88
2023/02/14 04:35:57;;;;;;;32.60;18.98;;;6.40;99.90;;;;;;5013570;28;20030;-87
2023/02/14 04:38:23;;;;;;;30.98;18.63;;;6.90;99.90;;;;;;5013767;28;20018;-88
2023/02/14 04:41:06;;;;;;;31.15;18.70;;;6.30;99.90;;;;;;5012857;28;20054;-89
2023/02/14 04:43:32;;;;;;;29.42;19.05;;;7.20;99.90;;;;;;5013760;28;20033;-87
2023/02/14 04:45:57;;;;;;;26.58;18.40;;;6.20;99.90;;;;;;5013644;28;20037;-90
2023/02/14 04:48:23;;;;;;;29.77;20.45;;;6.10;99.90;;;;;;5013453;28;20026;-88
2023/02/14 04:50:55;;;;;;;29.13;18.42;;;6.20;99.90;;;;;;5002913;28;20402;-87
2023/02/14 04:53:21;;;;;;;27.38;17.52;;;6.40;99.90;;;;;;4974824;28;20292;-88
2023/02/14 04:55:50;;;;;;;24.17;17.08;;;6.10;99.90;;;;;;4983824;28;20126;-89
2023/02/14 04:58:16;;;;;;;28.98;18.38;;;6.10;99.90;;;;;;4993732;28;20521;-88
2023/02/14 05:00:41;;;;;;;28.02;17.98;;;6.10;99.90;;;;;;4993321;28;20026;-88
2023/02/14 05:03:07;;;;;;;28.67;17.40;;;6.10;99.90;;;;;;4994224;28;20029;-88
2023/02/14 05:05:32;;;;;;;32.72;19.13;;;6.80;99.90;;;;;;4993847;28;20113;-88
2023/02/14 05:07:58;;;;;;;25.40;17.52;;;6.00;99.90;;;;;;4993669;28;20034;-88
2023/02/14 05:10:24;;;;;;;26.65;17.77;;;7.30;99.90;;;;;;4993423;28;20475;-89
2023/02/14 05:12:49;;;;;;;31.90;19.23;;;5.90;99.90;;;;;;4993873;28;20483;-88
2023/02/14 05:15:15;;;;;;;30.45;20.38;;;7.00;99.90;;;;;;4993344;28;20429;-87
2023/02/14 05:17:40;;;;;;;24.55;17.33;;;6.00;99.90;;;;;;4992953;28;20038;-88
2023/02/14 05:20:07;;;;;;;26.05;18.40;;;5.90;99.90;;;;;;4993628;28;20463;-88
2023/02/14 05:22:32;;;;;;;26.75;18.88;;;5.90;99.90;;;;;;4992853;28;20023;-87
2023/02/14 05:24:58;;;;;;;28.17;18.58;;;6.50;99.90;;;;;;4993210;28;20037;-89
2023/02/14 05:27:23;;;;;;;30.38;20.23;;;7.10;99.90;;;;;;4993662;28;20030;-88
2023/02/14 05:29:49;;;;;;;31.08;19.95;;;5.90;99.90;;;;;;4992513;28;20065;-88
2023/02/14 05:32:15;;;;;;;27.88;18.58;;;5.90;99.90;;;;;;4993417;28;20045;-88
2023/02/14 05:34:40;;;;;;;25.80;18.85;;;5.80;99.90;;;;;;4993504;28;20101;-87
2023/02/14 05:37:06;;;;;;;25.92;18.58;;;5.80;99.90;;;;;;4993052;28;20030;-87
2023/02/14 05:39:31;;;;;;;27.17;17.77;;;5.80;99.90;;;;;;4993170;28;20052;-88
2023/02/14 05:41:57;;;;;;;26.13;18.25;;;6.20;99.90;;;;;;4992990;28;20074;-88
2023/02/14 05:44:22;;;;;;;22.90;16.92;;;6.40;99.90;;;;;;4992998;28;20493;-88
2023/02/14 05:46:48;;;;;;;21.75;16.10;;;6.10;99.90;;;;;;4993302;28;20080;-89
2023/02/14 05:49:14;;;;;;;26.40;15.65;;;6.50;99.90;;;;;;4993346;28;20441;-88
2023/02/14 05:51:39;;;;;;;18.52;14.35;;;6.40;99.90;;;;;;4992721;28;20038;-88
2023/02/14 05:54:05;;;;;;;22.38;13.85;;;5.60;99.90;;;;;;4988216;28;20027;-89
2023/02/14 05:56:30;;;;;;;21.88;13.93;;;5.50;99.90;;;;;;4976650;28;20026;-88
2023/02/14 05:58:56;;;;;;;19.58;14.63;;;5.50;99.90;;;;;;4973264;28;20035;-87
2023/02/14 06:01:21;;;;;;;17.75;13.05;;;5.40;99.90;;;;;;4992992;28;20033;-88
2023/02/14 06:03:47;;;;;;;18.20;13.45;;;5.40;99.90;;;;;;4993235;28;20493;-89
2023/02/14 06:06:12;;;;;;;23.42;14.85;;;5.40;99.90;;;;;;4992760;28;20026;-88
2023/02/14 06:08:38;;;;;;;23.45;13.25;;;5.30;99.90;;;;;;4992466;28;20029;-88
2023/02/14 06:11:04;;;;;;;18.65;12.88;;;5.60;99.90;;;;;;4992623;28;20084;-89
2023/02/14 06:13:29;;;;;;;23.20;14.43;;;5.30;99.90;;;;;;4993088;28;20033;-87
2023/02/14 06:15:55;;;;;;;19.38;14.00;;;5.20;99.90;;;;;;4992469;28;20378;-88
2023/02/14 06:18:20;;;;;;;17.05;14.02;;;5.20;99.90;;;;;;4992240;28;20088;-86
2023/02/14 06:21:04;;;;;;;21.70;16.08;;;5.10;99.90;;;;;;4992374;28;20490;-87
2023/02/14 06:23:29;;;;;;;20.77;15.23;;;4.80;99.90;;;;;;4992815;28;20023;-88
2023/02/14 06:25:55;;;;;;;18.92;15.02;;;5.00;99.90;;;;;;4992468;28;20029;-88
2023/02/14 06:28:20;;;;;;;22.00;15.20;;;5.00;99.90;;;;;;4993581;28;20026;-88
2023/02/14 06:30:46;;;;;;;21.95;15.27;;;6.20;99.90;;;;;;4994958;28;20035;-87
2023/02/14 06:33:11;;;;;;;21.02;16.05;;;5.00;99.90;;;;;;4994545;28;20022;-87
2023/02/14 06:35:40;;;;;;;21.92;16.25;;;5.00;99.90;;;;;;4994865;28;20026;-87
2023/02/14 06:38:06;;;;;;;22.75;16.15;;;5.80;99.90;;;;;;4994183;28;20022;-87
2023/02/14 06:40:31;;;;;;;25.95;18.05;;;5.00;99.90;;;;;;4994398;28;20125;-88
2023/02/14 06:42:57;;;;;;;27.45;18.30;;;5.00;99.90;;;;;;4994908;28;20019;-87
2023/02/14 06:45:22;;;;;;;26.15;18.80;;;5.00;99.90;;;;;;4996028;28;20393;-86
2023/02/14 06:47:48;;;;;;;27.92;18.35;;;5.80;99.90;;;;;;4994942;28;20018;-87
2023/02/14 06:50:19;;;;;;;23.55;17.88;;;5.00;99.90;;;;;;4997585;28;20039;-86
2023/02/14 06:52:50;;;;;;;33.58;19.10;;;5.60;99.90;;;;;;4995108;28;20057;-87
2023/02/14 06:55:16;;;;;;;27.70;18.73;;;6.30;99.90;;;;;;4995179;28;20381;-87
2023/02/14 06:57:41;;;;;;;28.35;20.02;;;5.00;99.90;;;;;;4995042;28;20112;-87
2023/02/14 07:00:08;;;;;;;29.30;19.75;;;5.80;99.90;;;;;;4995321;28;20057;-87
2023/02/14 07:02:34;;;;;;;25.52;19.40;;;5.00;99.90;;;;;;4994517;28;20109;-88
2023/02/14 07:05:00;;;;;;;29.75;20.95;;;5.90;99.90;;;;;;4994931;28;20114;-87
2023/02/14 07:07:25;;;;;;;36.35;21.30;;;5.90;99.90;;;;;;4994875;28;20076;-87
2023/02/14 07:09:51;;;;;;;34.40;21.10;;;6.00;99.90;;;;;;4995654;28;20038;-87
2023/02/14 07:12:16;;;;;;;39.35;21.08;;;5.00;99.90;;;;;;4995481;28;20080;-88
2023/02/14 07:14:42;;;;;;;40.10;21.48;;;5.00;99.90;;;;;;4994741;28;20034;-87
2023/02/14 07:17:07;;;;;;;46.42;21.63;;;5.00;99.90;;;;;;4995491;28;20030;-87
2023/02/14 07:19:34;;;;;;;47.42;22.25;;;5.20;99.90;;;;;;4994810;28;20450;-87
2023/02/14 07:22:00;;;;;;;43.75;22.75;;;5.00;99.90;;;;;;4996404;28;20026;-88
2023/02/14 07:24:25;;;;;;;45.88;22.23;;;6.20;99.90;;;;;;4995401;28;20038;-88
2023/02/14 07:26:51;;;;;;;39.75;21.52;;;5.60;99.90;;;;;;4995387;28;20136;-87
2023/02/14 07:29:16;;;;;;;36.22;19.95;;;5.90;99.90;;;;;;4994673;28;20026;-88
2023/02/14 07:31:42;;;;;;;32.22;20.77;;;5.00;99.90;;;;;;4995064;28;20482;-88
2023/02/14 07:34:08;;;;;;;31.50;20.65;;;5.00;99.90;;;;;;4995051;28;20058;-89
2023/02/14 07:36:35;;;;;;;33.25;21.20;;;5.10;99.90;;;;;;4994461;28;20033;-87
2023/02/14 07:39:01;;;;;;;33.03;22.02;;;5.00;99.90;;;;;;4995098;28;20114;-88
2023/02/14 07:41:26;;;;;;;38.35;22.77;;;5.20;99.90;;;;;;4995541;28;20070;-87
2023/02/14 07:43:52;;;;;;;38.17;23.83;;;5.10;99.90;;;;;;4997776;28;20050;-87
2023/02/14 07:46:23;;;;;;;36.25;22.00;;;6.00;99.90;;;;;;4995410;28;20030;-87
2023/02/14 07:49:01;;;;;;;46.78;24.55;;;5.20;99.90;;;;;;4994742;28;20030;-88
2023/02/14 07:51:26;;;;;;;41.25;25.13;;;6.30;99.90;;;;;;4994580;28;20066;-88
2023/02/14 07:53:52;;;;;;;38.75;24.10;;;5.70;99.90;;;;;;4994715;28;20513;-88
2023/02/14 07:56:18;;;;;;;43.15;25.40;;;6.10;99.90;;;;;;4994691;28;20118;-86
2023/02/14 07:58:44;;;;;;;41.17;25.98;;;5.10;99.90;;;;;;4993484;28;20053;-86
2023/02/14 08:01:22;;;;;;;47.58;25.65;;;6.40;99.90;;;;;;4982639;28;20497;-88
2023/02/14 08:04:00;;;;;;;62.80;26.60;;;5.80;99.90;;;;;;4984958;28;20018;-87
2023/02/14 08:06:41;;;;;;;63.15;28.35;;;5.10;99.90;;;;;;4984750;28;20466;-88
2023/02/14 08:09:08;;;;;;;55.25;27.52;;;4.90;99.90;;;;;;4978844;28;20029;-89
2023/02/14 08:14:19;;;;;;;51.05;27.27;;;6.60;99.90;;;;;;4981262;28;20077;-86
2023/02/14 08:16:44;;;;;;;57.38;27.63;;;5.40;99.90;;;;;;4989241;28;20026;-89
2023/02/14 08:19:10;;;;;;;53.47;28.05;;;5.40;99.90;;;;;;4994470;28;20030;-89
2023/02/14 08:21:36;;;;;;;45.53;29.08;;;5.50;99.90;;;;;;4994181;28;20042;-86
2023/02/14 08:24:01;;;;;;;48.60;28.58;;;5.40;99.90;;;;;;4994247;28;20041;-87
2023/02/14 08:26:31;;;;;;;46.58;26.98;;;6.40;99.90;;;;;;4993668;28;20029;-88
2023/02/14 08:29:05;;;;;;;47.95;27.63;;;6.10;99.90;;;;;;4994315;28;20092;-87
2023/02/14 08:31:34;;;;;;;42.58;29.20;;;6.40;99.90;;;;;;4995188;28;20039;-90
2023/02/14 08:34:00;;;;;;;47.53;28.63;;;6.10;99.90;;;;;;4994101;28;20026;-88
2023/02/14 08:36:27;;;;;;;49.65;29.67;;;5.60;99.90;;;;;;4998396;28;20037;-88
2023/02/14 08:38:54;;;;;;;50.38;29.33;;;6.40;99.90;;;;;;4994357;28;20030;-88
2023/02/14 08:41:19;;;;;;;46.10;28.38;;;5.60;99.90;;;;;;4994239;28;20065;-87
2023/02/14 08:43:45;;;;;;;52.95;30.98;;;5.70;99.90;;;;;;4994458;28;20018;-89
2023/02/14 08:46:13;;;;;;;44.20;28.88;;;6.50;99.90;;;;;;4994164;28;20542;-90
2023/02/14 08:48:49;;;;;;;51.30;31.08;;;5.80;99.90;;;;;;4994702;28;20466;-90
2023/02/14 08:51:17;;;;;;;46.40;28.90;;;6.60;99.90;;;;;;4994954;28;20042;-90
2023/02/14 08:53:43;;;;;;;47.40;29.13;;;6.50;99.90;;;;;;5008673;28;20026;-90
2023/02/14 08:56:12;;;;;;;48.90;28.92;;;7.30;99.90;;;;;;5014247;28;20037;-88
2023/02/14 08:58:40;;;;;;;52.13;29.15;;;5.90;99.90;;;;;;5013118;28;20109;-88
2023/02/14 09:01:46;;;;;;;47.17;29.15;;;6.70;99.90;;;;;;5014805;28;20037;-92
2023/02/14 09:04:12;;;;;;;45.42;29.15;;;5.90;99.90;;;;;;5031462;23;20058;-91
2023/02/14 09:06:39;;;;;;;49.30;29.77;;;6.90;99.90;;;;;;5014624;28;20014;-89
2023/02/14 09:09:10;;;;;;;47.53;29.77;;;6.00;99.90;;;;;;5014310;28;20465;-91
2023/02/14 09:11:36;;;;;;;49.70;30.02;;;5.70;99.90;;;;;;5015244;28;20045;-92
2023/02/14 09:14:23;;;;;;;43.80;28.88;;;6.10;99.90;;;;;;5080619;28;20379;-89
2023/02/14 09:17:05;;;;;;;44.80;28.95;;;6.80;99.90;;;;;;5315752;22;20169;-93
2023/02/14 09:19:32;;;;;;;44.08;29.23;;;6.10;99.90;;;;;;5058323;28;20021;-93
2023/02/14 09:21:57;;;;;;;53.22;29.42;;;6.30;99.90;;;;;;5053772;28;20029;-92
2023/02/14 09:24:31;;;;;;;50.10;30.17;;;6.10;99.90;;;;;;5053098;28;20080;-96
2023/02/14 09:26:58;;;;;;;56.08;30.85;;;6.30;99.90;;;;;;5072215;28;20022;-93
2023/02/14 09:29:32;;;;;;;42.58;29.25;;;7.60;99.90;;;;;;5074457;22;20059;-92
2023/02/14 09:32:00;;;;;;;47.33;28.30;;;7.00;99.90;;;;;;5589381;22;20023;-92
2023/02/14 09:34:50;;;;;;;47.60;29.42;;;7.10;99.90;;;;;;5082361;28;20044;-93
2023/02/14 09:40:03;;;;;;;43.33;28.05;;;7.20;99.90;;;;;;5071428;28;20039;-90
2023/02/14 09:42:51;;;;;;;49.15;29.50;;;6.60;99.90;;;;;;5069634;28;20532;-87
2023/02/14 09:45:29;;;;;;;55.00;30.65;;;6.60;99.90;;;;;;5056433;28;20025;-89
2023/02/14 09:48:07;;;;;;;46.25;28.85;;;6.70;99.90;;;;;;5069654;28;20476;-87
2023/02/14 09:50:42;;;;;;;49.03;29.27;;;6.80;99.90;;;;;;5069090;28;20534;-87
2023/02/14 09:53:14;;;;;;;45.50;29.52;;;7.20;99.90;;;;;;5069427;28;20029;-89
2023/02/14 09:55:54;;;;;;;47.90;30.75;;;7.80;99.90;;;;;;5069744;28;20025;-88
2023/02/14 09:58:40;;;;;;;43.97;29.02;;;6.90;99.90;;;;;;5069068;28;20063;-88
2023/02/14 10:01:12;;;;;;;49.13;30.20;;;7.00;99.90;;;;;;5069827;28;20104;-89
2023/02/14 10:03:54;;;;;;;50.03;31.45;;;8.00;99.90;;;;;;5069882;28;20040;-90
2023/02/14 10:06:41;;;;;;;46.30;29.85;;;6.80;99.90;;;;;;5069739;28;20028;-89
2023/02/14 10:09:35;;;;;;;48.67;31.00;;;7.10;99.90;;;;;;5069627;28;20017;-89
2023/02/14 10:12:12;;;;;;;45.50;30.13;;;7.20;99.90;;;;;;5069838;28;20035;-92
2023/02/14 10:14:39;;;;;;;45.38;29.27;;;7.20;99.90;;;;;;5072535;28;20029;-91
2023/02/14 10:17:23;;;;;;;47.85;28.33;;;7.90;99.90;;;;;;5069436;28;20032;-91
2023/02/14 10:19:58;;;;;;;45.42;28.67;;;7.40;99.90;;;;;;5069326;28;20043;-90
2023/02/14 10:22:36;;;;;;;44.67;30.55;;;8.10;99.90;;;;;;5069854;28;20435;-91
2023/02/14 10:25:23;;;;;;;42.00;29.45;;;8.90;99.90;;;;;;5060283;28;20468;-93
2023/02/14 10:27:51;;;;;;;44.53;27.63;;;8.30;99.90;;;;;;5055164;28;20044;-91
2023/02/14 10:30:22;;;;;;;48.22;28.98;;;7.60;99.90;;;;;;5045260;28;20036;-88
2023/02/14 10:32:56;;;;;;;43.10;29.55;;;8.90;99.90;;;;;;5039880;28;20049;-86
2023/02/14 10:35:41;;;;;;;40.65;28.13;;;7.60;99.90;;;;;;5035000;28;20025;-88
2023/02/14 10:38:44;;;;;;;45.60;29.35;;;7.70;99.90;;;;;;5052134;28;20488;-93
2023/02/14 10:47:34;;;;;;;47.47;28.95;;;7.80;99.90;;;;;;5200743;22;20501;-90
2023/02/14 10:50:43;;;;;;;47.13;29.83;;;7.80;99.90;;;;;;5036789;28;20145;-90
2023/02/14 10:53:43;;;;;;;52.30;30.70;;;7.20;99.90;;;;;;5035855;28;20489;-90
2023/02/14 10:56:18;;;;;;;49.08;29.63;;;7.30;99.90;;;;;;5035160;28;20035;-89
2023/02/14 10:58:47;;;;;;;46.70;29.95;;;8.00;99.90;;;;;;5034773;28;20029;-92
2023/02/14 11:01:16;;;;;;;43.17;29.90;;;8.40;99.90;;;;;;5036097;28;20060;-89
2023/02/14 11:03:50;;;;;;;50.17;30.05;;;8.10;99.90;;;;;;5035199;28;20041;-88
2023/02/14 11:06:16;;;;;;;49.30;31.85;;;8.10;99.90;;;;;;5035961;28;20026;-90
2023/02/14 11:08:41;;;;;;;47.58;30.42;;;8.10;99.90;;;;;;5034700;28;20026;-91
2023/02/14 11:11:29;;;;;;;45.63;30.08;;;8.20;99.90;;;;;;5025118;28;20097;-90
2023/02/14 11:13:54;;;;;;;46.58;30.60;;;8.20;99.90;;;;;;5017443;28;20084;-91
2023/02/14 11:16:33;;;;;;;46.72;30.95;;;9.20;99.90;;;;;;5043775;28;20049;-90
2023/02/14 11:19:20;;;;;;;44.80;29.92;;;8.30;99.90;;;;;;5033079;28;20493;-88
2023/02/14 11:21:47;;;;;;;52.92;31.58;;;8.30;99.90;;;;;;5029058;28;20033;-88
2023/02/14 11:24:27;;;;;;;51.05;31.65;;;8.80;99.90;;;;;;5027118;28;20373;-91
2023/02/14 11:27:16;;;;;;;51.00;31.65;;;8.40;99.90;;;;;;5031261;28;20389;-90
2023/02/14 11:29:44;;;;;;;49.22;31.08;;;8.50;99.90;;;;;;5026441;28;20116;-88
2023/02/14 11:32:24;;;;;;;49.75;31.98;;;8.80;99.90;;;;;;5018438;28;20030;-87
2023/02/14 11:35:00;;;;;;;54.58;31.67;;;8.60;99.90;;;;;;5015204;28;20038;-88
2023/02/14 11:37:35;;;;;;;52.60;32.03;;;9.30;99.90;;;;;;5014017;28;20413;-91
2023/02/14 11:40:04;;;;;;;50.63;32.10;;;9.60;99.90;;;;;;5024840;28;20029;-89
2023/02/14 11:42:44;;;;;;;49.92;32.10;;;8.80;99.90;;;;;;5017777;28;20493;-88
2023/02/14 11:45:31;;;;;;;52.55;33.35;;;8.90;99.90;;;;;;5020341;28;20018;-90
2023/02/14 11:48:25;;;;;;;55.45;35.30;;;8.90;99.90;;;;;;5022496;28;20518;-89
2023/02/14 11:51:03;;;;;;;51.80;33.30;;;9.00;99.90;;;;;;5027376;28;20037;-88
2023/02/14 11:53:38;;;;;;;52.08;33.63;;;9.00;99.90;;;;;;5028581;28;20389;-91
2023/02/14 11:56:17;;;;;;;56.17;33.58;;;9.10;99.90;;;;;;5041557;28;20081;-94
2023/02/14 11:59:03;;;;;;;55.70;33.78;;;10.10;99.90;;;;;;5042345;28;20029;-88
2023/02/14 12:01:32;;;;;;;54.88;34.25;;;10.00;99.90;;;;;;5037217;28;20017;-91
2023/02/14 12:04:15;;;;;;;54.15;32.95;;;10.10;99.90;;;;;;5035833;28;20025;-93
2023/02/14 12:06:40;;;;;;;48.90;33.58;;;10.10;99.90;;;;;;5034002;28;20045;-89
2023/02/14 12:09:23;;;;;;;54.35;35.20;;;9.60;99.90;;;;;;5021545;28;20107;-89
2023/02/14 12:12:03;;;;;;;47.83;32.20;;;9.80;99.90;;;;;;5021523;28;20018;-94
2023/02/14 12:14:32;;;;;;;50.55;33.05;;;9.50;99.90;;;;;;5015275;28;20037;-89
2023/02/14 12:17:19;;;;;;;53.63;32.63;;;9.60;99.90;;;;;;5015610;28;20069;-90
2023/02/14 12:20:26;;;;;;;61.33;35.35;;;9.30;99.90;;;;;;5016029;28;20022;-92
2023/02/14 12:23:43;;;;;;;57.97;34.40;;;10.30;99.90;;;;;;5018092;28;20030;-91
2023/02/14 12:26:36;;;;;;;50.05;32.92;;;9.40;99.90;;;;;;5017860;28;20502;-91
2023/02/14 12:33:56;;;;;;;49.40;34.17;;;10.00;99.90;;;;;;5055143;28;20041;-95
2023/02/14 12:40:11;;;;;;;48.05;31.63;;;10.10;99.90;;;;;;5062677;22;20060;-93
2023/02/14 12:43:17;;;;;;;46.03;30.40;;;10.20;99.90;;;;;;5033667;28;20021;-93
2023/02/14 12:46:35;;;;;;;46.50;30.67;;;10.30;99.90;;;;;;5040260;28;20055;-92
2023/02/14 12:49:24;;;;;;;46.75;30.98;;;10.40;99.90;;;;;;5040752;28;20075;-92
2023/02/14 12:52:49;;;;;;;;;;;;;;;;;;;;;
2023/02/14 12:55:44;;;;;;;50.33;30.98;;;10.50;99.90;;;;;;5026084;22;20049;-94
2023/02/14 12:58:50;;;;;;;44.75;29.63;;;10.70;99.90;;;;;;5009331;28;20505;-94
2023/02/14 13:17:40;;;;;;;48.60;31.13;;;10.70;99.90;;;;;;5090100;28;20768;-88
2023/02/14 13:20:23;;;;;;;46.35;29.75;;;11.40;99.90;;;;;;5092331;28;20032;-88
2023/02/14 13:22:50;;;;;;;47.90;30.27;;;10.80;99.90;;;;;;5101661;28;20030;-89
2023/02/14 13:25:32;;;;;;;48.88;30.85;;;11.70;99.90;;;;;;5092380;28;20039;-89
2023/02/14 13:28:06;;;;;;;49.88;30.05;;;10.90;99.90;;;;;;5088668;28;20030;-89
2023/02/14 13:30:37;;;;;;;45.67;29.13;;;10.90;99.90;;;;;;5089112;28;20032;-89
2023/02/14 13:33:13;;;;;;;44.00;29.33;;;11.60;99.90;;;;;;5093849;28;20035;-88
2023/02/14 13:35:40;;;;;;;49.83;31.65;;;11.00;99.90;;;;;;5087811;28;20051;-89
2023/02/14 13:38:16;;;;;;;52.42;31.13;;;11.40;99.90;;;;;;5088686;28;20028;-89
2023/02/14 13:40:42;;;;;;;44.08;29.95;;;11.10;99.90;;;;;;5071847;28;20032;-89
2023/02/14 13:43:08;;;;;;;50.83;30.50;;;11.80;99.90;;;;;;5071862;28;20028;-88
2023/02/14 13:45:34;;;;;;;44.20;29.83;;;11.80;99.90;;;;;;5078879;28;20069;-87
2023/02/14 13:48:24;;;;;;;46.35;29.63;;;12.20;99.90;;;;;;5092685;28;20095;-90
2023/02/14 13:50:57;;;;;;;44.38;30.63;;;11.30;99.90;;;;;;5093418;28;20455;-90
2023/02/14 13:53:42;;;;;;;49.72;30.35;;;12.10;99.90;;;;;;5092779;28;20044;-89
2023/02/14 13:56:32;;;;;;;50.67;30.90;;;11.40;99.90;;;;;;5104009;23;20025;-90